createdAt,value
2018-05-12T00:01:38.232Z,101228.23
2018-05-12T00:04:06.583Z,101227.87
2018-05-12T00:06:34.955Z,101223.47
2018-05-12T00:09:03.281Z,101222.46
2018-05-12T00:11:31.642Z,101217.89
2018-05-12T00:13:59.946Z,101225.25
2018-05-12T00:16:28.303Z,101215.95
2018-05-12T00:18:56.732Z,101218.28
2018-05-12T00:21:25.893Z,101218.77
2018-05-12T00:23:54.268Z,101216.25
2018-05-12T00:26:22.658Z,101219.43
2018-05-12T00:28:51.036Z,101222.66
2018-05-12T00:31:19.411Z,101216.70
2018-05-12T00:33:47.798Z,101208.84
2018-05-12T00:36:16.179Z,101209.86
2018-05-12T00:38:44.556Z,101205.88
2018-05-12T00:41:12.963Z,101208.21
2018-05-12T00:43:42.097Z,101212.56
2018-05-12T00:46:10.704Z,101210.80
2018-05-12T00:48:39.104Z,101189.83
2018-05-12T00:51:07.446Z,101206.03
2018-05-12T00:53:35.805Z,101200.80
2018-05-12T00:56:04.146Z,101199.83
2018-05-12T00:58:33.552Z,101193.64
2018-05-12T01:01:01.977Z,101194.66
2018-05-12T01:03:30.926Z,101193.95
2018-05-12T01:06:00.813Z,101190.97
2018-05-12T01:08:30.172Z,101187.34
2018-05-12T01:10:58.742Z,101190.53
2018-05-12T01:13:27.137Z,101192.38
2018-05-12T01:15:56.098Z,101192.68
2018-05-12T01:18:25.230Z,101192.07
2018-05-12T01:20:54.278Z,101192.16
2018-05-12T01:23:23.737Z,101191.05
2018-05-12T01:25:52.080Z,101184.08
2018-05-12T01:28:20.497Z,101201.52
2018-05-12T01:30:49.696Z,101198.95
2018-05-12T01:33:18.074Z,101189.31
2018-05-12T01:35:46.586Z,101185.78
2018-05-12T01:38:17.934Z,101191.16
2018-05-12T01:40:47.996Z,101192.16
2018-05-12T01:43:16.327Z,101190.48
2018-05-12T01:45:45.453Z,101179.89
2018-05-12T01:48:14.747Z,101181.33
2018-05-12T01:50:43.093Z,101181.82
2018-05-12T01:53:11.757Z,101180.94
2018-05-12T01:55:40.157Z,101179.69
2018-05-12T01:58:08.585Z,101176.59
2018-05-12T02:00:37.046Z,101174.43
2018-05-12T02:03:05.504Z,101171.32
2018-05-12T02:05:33.830Z,101175.72
2018-05-12T02:08:03.117Z,101175.29
2018-05-12T02:10:31.548Z,101174.81
2018-05-12T02:13:00.971Z,101169.55
2018-05-12T02:15:30.101Z,101174.42
2018-05-12T02:17:58.677Z,101173.08
2018-05-12T02:20:27.712Z,101172.17
2018-05-12T02:22:56.116Z,101166.41
2018-05-12T02:25:26.045Z,101166.88
2018-05-12T02:27:55.172Z,101161.77
2018-05-12T02:30:23.519Z,101161.01
2018-05-12T02:32:52.616Z,101158.98
2018-05-12T02:35:20.984Z,101152.89
2018-05-12T02:37:50.222Z,101151.72
2018-05-12T02:40:18.597Z,101151.67
2018-05-12T02:42:46.921Z,101150.16
2018-05-12T02:45:15.290Z,101159.05
2018-05-12T02:47:43.641Z,101156.81
2018-05-12T02:50:12.043Z,101153.34
2018-05-12T02:52:40.417Z,101154.81
2018-05-12T02:55:08.740Z,101157.06
2018-05-12T02:57:37.112Z,101161.58
2018-05-12T03:00:06.215Z,101162.66
2018-05-12T03:02:34.543Z,101163.80
2018-05-12T03:05:02.889Z,101163.05
2018-05-12T03:07:31.213Z,101165.78
2018-05-12T03:09:59.579Z,101161.80
2018-05-12T03:12:27.993Z,101163.66
2018-05-12T03:14:56.340Z,101159.70
2018-05-12T03:17:24.683Z,101164.59
2018-05-12T03:19:53.100Z,101163.69
2018-05-12T03:22:21.442Z,101170.14
2018-05-12T03:24:49.796Z,101170.73
2018-05-12T03:27:18.280Z,101180.67
2018-05-12T03:29:46.668Z,101178.35
2018-05-12T03:32:15.064Z,101177.34
2018-05-12T03:34:43.512Z,101173.69
2018-05-12T03:37:11.823Z,101180.45
2018-05-12T03:39:40.157Z,101170.20
2018-05-12T03:42:09.287Z,101177.31
2018-05-12T03:44:37.612Z,101177.64
2018-05-12T03:47:06.332Z,101174.58
2018-05-12T03:49:34.684Z,101185.81
2018-05-12T03:52:03.813Z,101181.11
2018-05-12T03:54:32.142Z,101181.30
2018-05-12T03:57:00.508Z,101179.87
2018-05-12T03:59:28.831Z,101177.94
2018-05-12T04:01:57.288Z,101181.25
2018-05-12T04:04:44.811Z,101185.98
2018-05-12T04:07:31.947Z,101193.30
2018-05-12T04:10:13.726Z,101197.09
2018-05-12T04:12:42.814Z,101192.26
2018-05-12T04:15:11.202Z,101190.33
2018-05-12T04:17:39.556Z,101184.95
2018-05-12T04:20:07.883Z,101180.50
2018-05-12T04:22:36.249Z,101188.55
2018-05-12T04:25:04.776Z,101183.49
2018-05-12T04:27:33.139Z,101182.72
2018-05-12T04:30:01.478Z,101185.41
2018-05-12T04:32:30.968Z,101187.02
2018-05-12T04:35:00.078Z,101190.45
2018-05-12T04:37:29.247Z,101187.17
2018-05-12T04:39:57.590Z,101182.34
2018-05-12T04:42:25.966Z,101185.43
2018-05-12T04:44:54.506Z,101186.86
2018-05-12T04:47:23.608Z,101183.56
2018-05-12T04:49:52.831Z,101187.71
2018-05-12T04:52:21.159Z,101185.97
2018-05-12T04:54:49.503Z,101187.13
2018-05-12T04:57:17.868Z,101184.41
2018-05-12T04:59:46.226Z,101184.28
2018-05-12T05:02:14.564Z,101183.06
2018-05-12T05:04:42.984Z,101182.39
2018-05-12T05:07:11.348Z,101193.31
2018-05-12T05:09:40.617Z,101194.64
2018-05-12T05:12:08.966Z,101198.14
2018-05-12T05:14:37.334Z,101196.48
2018-05-12T05:17:05.678Z,101198.64
2018-05-12T05:19:34.786Z,101197.11
2018-05-12T05:22:03.161Z,101198.02
2018-05-12T05:24:32.384Z,101201.43
2018-05-12T05:27:01.903Z,101194.92
2018-05-12T05:29:30.284Z,101196.91
2018-05-12T05:31:58.705Z,101200.05
2018-05-12T05:34:27.800Z,101200.44
2018-05-12T05:36:57.050Z,101204.52
2018-05-12T05:39:26.737Z,101196.89
2018-05-12T05:41:55.112Z,101193.86
2018-05-12T05:44:23.477Z,101198.30
2018-05-12T05:46:51.839Z,101195.03
2018-05-12T05:49:20.159Z,101193.41
2018-05-12T05:51:49.648Z,101188.95
2018-05-12T05:54:18.358Z,101189.08
2018-05-12T05:56:46.670Z,101184.85
2018-05-12T05:59:15.014Z,101183.88
2018-05-12T06:01:43.327Z,101184.81
2018-05-12T06:04:11.647Z,101191.27
2018-05-12T06:06:40.001Z,101188.41
2018-05-12T06:09:09.087Z,101189.23
2018-05-12T06:11:38.223Z,101189.81
2018-05-12T06:14:06.557Z,101191.83
2018-05-12T06:16:36.263Z,101190.45
2018-05-12T06:19:04.596Z,101193.90
2018-05-12T06:21:32.972Z,101193.73
2018-05-12T06:24:01.315Z,101190.20
2018-05-12T06:26:30.396Z,101191.48
2018-05-12T06:28:58.752Z,101193.65
2018-05-12T06:31:27.132Z,101192.02
2018-05-12T06:33:55.447Z,101188.75
2018-05-12T06:36:24.572Z,101188.16
2018-05-12T06:38:52.934Z,101185.67
2018-05-12T06:41:21.262Z,101190.02
2018-05-12T06:43:49.636Z,101188.22
2018-05-12T06:46:17.984Z,101186.37
2018-05-12T06:48:46.326Z,101190.19
2018-05-12T06:51:15.484Z,101187.95
2018-05-12T06:53:43.812Z,101185.30
2018-05-12T06:56:12.175Z,101194.51
2018-05-12T06:58:41.273Z,101191.19
2018-05-12T07:01:10.416Z,101195.01
2018-05-12T07:03:38.782Z,101185.34
2018-05-12T07:06:07.152Z,101183.48
2018-05-12T07:08:35.504Z,101177.78
2018-05-12T07:11:04.624Z,101181.34
2018-05-12T07:13:32.956Z,101177.56
2018-05-12T07:16:01.308Z,101175.86
2018-05-12T07:18:29.656Z,101177.48
2018-05-12T07:20:58.064Z,101183.79
2018-05-12T07:23:26.468Z,101178.88
2018-05-12T07:25:54.838Z,101181.81
2018-05-12T07:28:23.279Z,101175.41
2018-05-12T07:30:51.619Z,101173.59
2018-05-12T07:33:20.839Z,101172.14
2018-05-12T07:35:50.195Z,101169.06
2018-05-12T07:38:19.888Z,101176.74
2018-05-12T07:40:49.393Z,101171.17
2018-05-12T07:43:17.967Z,101164.10
2018-05-12T07:45:46.732Z,101166.28
2018-05-12T07:48:15.075Z,101170.50
2018-05-12T07:50:44.208Z,101168.41
2018-05-12T07:53:12.582Z,101162.31
2018-05-12T07:55:40.952Z,101158.95
2018-05-12T07:58:09.319Z,101167.05
2018-05-12T08:00:37.678Z,101165.72
2018-05-12T08:03:06.807Z,101157.38
2018-05-12T08:05:35.942Z,101163.16
2018-05-12T08:08:04.301Z,101162.28
2018-05-12T08:10:32.683Z,101157.84
2018-05-12T08:13:01.017Z,101163.79
2018-05-12T08:15:29.362Z,101164.57
2018-05-12T08:17:57.745Z,101160.72
2018-05-12T08:20:26.778Z,101160.95
2018-05-12T08:22:55.302Z,101152.27
2018-05-12T08:25:23.667Z,101145.84
2018-05-12T08:27:52.013Z,101148.50
2018-05-12T08:30:20.354Z,101145.41
2018-05-12T08:32:48.825Z,101151.08
2018-05-12T08:35:17.276Z,101151.67
2018-05-12T08:37:45.799Z,101145.48
2018-05-12T08:40:14.268Z,101149.91
2018-05-12T08:42:43.392Z,101157.89
2018-05-12T08:45:12.793Z,101147.48
2018-05-12T08:47:42.117Z,101151.98
2018-05-12T08:50:11.322Z,101152.91
2018-05-12T08:52:40.759Z,101148.95
2018-05-12T08:55:10.257Z,101150.70
2018-05-12T08:57:38.675Z,101144.78
2018-05-12T09:00:07.825Z,101143.44
2018-05-12T09:02:36.984Z,101143.74
2018-05-12T09:05:06.114Z,101139.23
2018-05-12T09:07:35.154Z,101140.23
2018-05-12T09:10:03.481Z,101132.42
2018-05-12T09:12:33.341Z,101127.10
2018-05-12T09:15:02.479Z,101133.70
2018-05-12T09:17:32.396Z,101138.70
2018-05-12T09:20:01.574Z,101139.26
2018-05-12T09:22:30.165Z,101128.36
2018-05-12T09:24:58.515Z,101145.82
2018-05-12T09:27:27.643Z,101136.14
2018-05-12T09:29:55.971Z,101131.74
2018-05-12T09:32:24.342Z,101136.23
2018-05-12T09:34:52.678Z,101132.68
2018-05-12T09:37:21.120Z,101132.80
2018-05-12T09:39:49.441Z,101140.31
2018-05-12T09:42:17.768Z,101135.38
2018-05-12T09:44:46.963Z,101131.16
2018-05-12T09:47:15.230Z,101130.02
2018-05-12T09:49:43.592Z,101127.29
2018-05-12T09:52:11.923Z,101131.02
2018-05-12T09:54:41.061Z,101122.44
2018-05-12T09:57:09.438Z,101123.04
2018-05-12T09:59:37.795Z,101121.03
2018-05-12T10:02:06.182Z,101123.92
2018-05-12T10:04:34.691Z,101106.88
2018-05-12T10:07:03.181Z,101104.34
2018-05-12T10:09:31.802Z,101104.55
2018-05-12T10:12:00.958Z,101095.45
2018-05-12T10:14:29.338Z,101100.36
2018-05-12T10:16:57.899Z,101096.68
2018-05-12T10:19:26.509Z,101096.53
2018-05-12T10:21:54.920Z,101087.77
2018-05-12T10:24:23.479Z,101085.42
2018-05-12T10:26:51.832Z,101088.42
2018-05-12T10:29:20.190Z,101088.28
2018-05-12T10:31:48.566Z,101086.28
2018-05-12T10:34:18.092Z,101080.66
2018-05-12T10:36:46.849Z,101077.35
2018-05-12T10:39:15.964Z,101069.88
2018-05-12T10:41:44.338Z,101067.24
2018-05-12T10:44:12.696Z,101065.06
2018-05-12T10:46:41.043Z,101068.98
2018-05-12T10:49:10.167Z,101055.78
2018-05-12T10:51:38.489Z,101064.01
2018-05-12T10:54:06.864Z,101062.12
2018-05-12T10:56:36.033Z,101057.23
2018-05-12T10:59:04.412Z,101057.20
2018-05-12T11:01:32.795Z,101050.52
2018-05-12T11:04:01.190Z,101048.09
2018-05-12T11:06:29.566Z,101038.42
2018-05-12T11:08:58.779Z,101045.38
2018-05-12T11:11:27.214Z,101036.63
2018-05-12T11:13:55.578Z,101040.47
2018-05-12T11:16:23.914Z,101025.20
2018-05-12T11:18:52.301Z,101024.00
2018-05-12T11:21:20.644Z,101020.97
2018-05-12T11:23:49.768Z,101013.94
2018-05-12T11:26:18.948Z,101015.50
2018-05-12T11:28:47.773Z,101016.05
2018-05-12T11:31:18.116Z,101004.30
2018-05-12T11:33:46.577Z,101002.89
2018-05-12T11:36:15.110Z,101005.86
2018-05-12T11:38:43.546Z,100992.95
2018-05-12T11:41:12.833Z,100996.91
2018-05-12T11:43:42.379Z,100991.56
2018-05-12T11:46:11.722Z,100998.37
2018-05-12T11:48:40.292Z,100994.56
2018-05-12T11:51:09.095Z,100983.59
2018-05-12T11:53:37.618Z,100977.91
2018-05-12T11:56:06.205Z,100973.36
2018-05-12T11:58:34.696Z,100971.10
2018-05-12T12:01:04.030Z,100974.09
2018-05-12T12:03:32.977Z,100970.13
2018-05-12T12:06:01.334Z,100969.31
2018-05-12T12:08:30.000Z,100964.27
2018-05-12T12:10:58.375Z,100966.70
2018-05-12T12:13:27.314Z,100952.70
2018-05-12T12:15:55.810Z,100956.03
2018-05-12T12:18:24.130Z,100957.69
2018-05-12T12:20:52.459Z,100959.08
2018-05-12T12:23:20.864Z,100944.43
2018-05-12T12:25:50.024Z,100947.95
2018-05-12T12:28:18.365Z,100945.05
2018-05-12T12:30:47.126Z,100938.92
2018-05-12T12:33:15.494Z,100931.42
2018-05-12T12:35:44.053Z,100934.33
2018-05-12T12:38:12.403Z,100930.11
2018-05-12T12:40:41.489Z,100933.06
2018-05-12T12:43:10.588Z,100927.53
2018-05-12T12:45:39.711Z,100910.83
2018-05-12T12:48:08.075Z,100921.74
2018-05-12T12:50:36.404Z,100917.61
2018-05-12T12:53:04.772Z,100907.37
2018-05-12T12:55:33.235Z,100906.80
2018-05-12T12:58:01.620Z,100913.90
2018-05-12T13:00:29.949Z,100908.22
2018-05-12T13:02:59.087Z,100903.92
2018-05-12T13:05:27.435Z,100905.39
2018-05-12T13:07:56.569Z,100911.94
2018-05-12T13:10:24.932Z,100902.66
2018-05-12T13:12:53.351Z,100892.69
2018-05-12T13:15:21.704Z,100895.34
2018-05-12T13:17:50.462Z,100894.69
2018-05-12T13:20:18.817Z,100891.73
2018-05-12T13:22:47.925Z,100895.77
2018-05-12T13:25:17.086Z,100896.20
2018-05-12T13:27:45.431Z,100887.07
2018-05-12T13:30:13.817Z,100881.91
2018-05-12T13:32:42.144Z,100874.39
2018-05-12T13:35:11.235Z,100875.80
2018-05-12T13:37:40.439Z,100873.84
2018-05-12T13:40:09.564Z,100871.72
2018-05-12T13:42:37.977Z,100863.02
2018-05-12T13:45:06.312Z,100868.95
2018-05-12T13:47:34.700Z,100870.45
2018-05-12T13:50:03.080Z,100860.66
2018-05-12T13:52:31.445Z,100863.23
2018-05-12T13:54:59.760Z,100863.66
2018-05-12T13:57:28.090Z,100863.80
2018-05-12T13:59:57.214Z,100863.38
2018-05-12T14:02:25.591Z,100853.23
2018-05-12T14:04:53.972Z,100850.36
2018-05-12T14:07:22.451Z,100851.66
2018-05-12T14:09:50.943Z,100853.02
2018-05-12T14:12:19.563Z,100854.99
2018-05-12T14:14:48.056Z,100847.16
2018-05-12T14:17:16.575Z,100848.70
2018-05-12T14:19:46.373Z,100840.44
2018-05-12T14:22:14.774Z,100837.03
2018-05-12T14:24:47.643Z,100837.70
2018-05-12T14:27:16.024Z,100837.95
2018-05-12T14:29:44.376Z,100841.00
2018-05-12T14:32:12.735Z,100832.59
2018-05-12T14:34:41.113Z,100833.58
2018-05-12T14:37:09.437Z,100828.07
2018-05-12T14:39:37.783Z,100830.84
2018-05-12T14:42:06.245Z,100830.67
2018-05-12T14:44:34.585Z,100826.88
2018-05-12T14:47:02.956Z,100824.39
2018-05-12T14:49:31.440Z,100827.53
2018-05-12T14:51:59.912Z,100823.31
2018-05-12T14:54:28.398Z,100820.45
2018-05-12T14:56:56.756Z,100815.86
2018-05-12T14:59:25.122Z,100810.66
2018-05-12T15:01:53.651Z,100808.97
2018-05-12T15:04:22.066Z,100798.38
2018-05-12T15:06:52.785Z,100811.13
2018-05-12T15:09:21.254Z,100805.72
2018-05-12T15:11:49.577Z,100805.01
2018-05-12T15:14:17.954Z,100803.70
2018-05-12T15:17:08.896Z,100802.13
2018-05-12T15:19:37.263Z,100798.52
2018-05-12T15:22:06.899Z,100793.06
2018-05-12T15:24:35.237Z,100780.91
2018-05-12T15:27:03.592Z,100788.63
2018-05-12T15:29:32.679Z,100781.81
2018-05-12T15:32:02.927Z,100775.30
2018-05-12T15:34:31.469Z,100776.19
2018-05-12T15:37:00.224Z,100772.59
2018-05-12T15:39:29.579Z,100769.97
2018-05-12T15:41:58.940Z,100771.08
2018-05-12T15:44:27.372Z,100765.09
2018-05-12T15:46:56.032Z,100767.23
2018-05-12T15:49:24.414Z,100761.67
2018-05-12T15:51:53.331Z,100762.91
2018-05-12T15:54:22.010Z,100765.25
2018-05-12T15:56:51.440Z,100762.09
2018-05-12T15:59:19.812Z,100768.02
2018-05-12T16:01:48.172Z,100767.17
2018-05-12T16:04:16.536Z,100748.87
2018-05-12T16:06:45.624Z,100770.89
2018-05-12T16:09:15.178Z,100762.67
2018-05-12T16:11:43.578Z,100758.87
2018-05-12T16:14:12.313Z,100742.70
2018-05-12T16:16:42.133Z,100747.30
2018-05-12T16:19:10.644Z,100749.69
2018-05-12T16:21:40.284Z,100746.22
2018-05-12T16:24:08.640Z,100750.02
2018-05-12T16:26:36.970Z,100751.90
2018-05-12T16:29:05.293Z,100756.47
2018-05-12T16:31:34.678Z,100748.92
2018-05-12T16:34:03.018Z,100752.34
2018-05-12T16:36:31.322Z,100751.67
2018-05-12T16:38:59.695Z,100749.73
2018-05-12T16:41:38.391Z,100748.80
2018-05-12T16:44:07.518Z,100750.16
2018-05-12T16:46:35.859Z,100745.36
2018-05-12T16:49:04.999Z,100752.39
2018-05-12T16:51:34.152Z,100749.09
2018-05-12T16:54:03.273Z,100747.41
2018-05-12T16:56:31.570Z,100747.20
2018-05-12T16:58:59.909Z,100749.68
2018-05-12T17:01:28.244Z,100749.69
2018-05-12T17:03:56.737Z,100747.78
2018-05-12T17:06:25.096Z,100745.95
2018-05-12T17:08:53.418Z,100748.70
2018-05-12T17:11:22.539Z,100750.59
2018-05-12T17:13:50.918Z,100749.75
2018-05-12T17:16:19.295Z,100750.13
2018-05-12T17:18:47.707Z,100739.95
2018-05-12T17:21:16.059Z,100748.98
2018-05-12T17:23:44.403Z,100744.27
2018-05-12T17:26:13.515Z,100745.87
2018-05-12T17:28:41.855Z,100738.16
2018-05-12T17:31:10.227Z,100737.29
2018-05-12T17:33:39.590Z,100737.18
2018-05-12T17:36:07.951Z,100734.76
2018-05-12T17:38:36.353Z,100730.21
2018-05-12T17:41:04.726Z,100727.09
2018-05-12T17:43:33.122Z,100729.70
2018-05-12T17:46:01.490Z,100724.48
2018-05-12T17:48:29.826Z,100725.56
2018-05-12T17:50:58.957Z,100726.25
2018-05-12T17:53:28.811Z,100725.19
2018-05-12T17:55:57.203Z,100730.00
2018-05-12T17:58:26.442Z,100728.63
2018-05-12T18:00:54.766Z,100736.17
2018-05-12T18:03:23.128Z,100735.63
2018-05-12T18:05:52.482Z,100737.15
2018-05-12T18:08:20.936Z,100737.22
2018-05-12T18:10:50.070Z,100741.87
2018-05-12T18:13:18.439Z,100738.39
2018-05-12T18:15:46.813Z,100740.32
2018-05-12T18:18:15.217Z,100748.61
2018-05-12T18:20:43.628Z,100744.23
2018-05-12T18:23:12.970Z,100739.48
2018-05-12T18:25:42.265Z,100741.87
2018-05-12T18:28:10.573Z,100747.55
2018-05-12T18:30:38.899Z,100747.52
2018-05-12T18:33:08.411Z,100746.20
2018-05-12T18:35:37.477Z,100748.55
2018-05-12T18:38:05.877Z,100754.34
2018-05-12T18:40:34.247Z,100760.26
2018-05-12T18:43:02.637Z,100758.73
2018-05-12T18:45:31.025Z,100761.98
2018-05-12T18:48:00.148Z,100760.93
2018-05-12T18:50:28.499Z,100760.67
2018-05-12T18:52:57.627Z,100766.18
2018-05-12T18:55:25.953Z,100762.32
2018-05-12T18:57:55.118Z,100761.19
2018-05-12T19:00:23.492Z,100767.14
2018-05-12T19:02:51.853Z,100765.56
2018-05-12T19:05:20.210Z,100771.96
2018-05-12T19:07:48.575Z,100774.66
2018-05-12T19:10:16.922Z,100785.29
2018-05-12T19:12:45.245Z,100786.76
2018-05-12T19:15:13.644Z,100789.17
2018-05-12T19:17:41.979Z,100787.03
2018-05-12T19:20:10.303Z,100787.69
2018-05-12T19:22:38.651Z,100785.64
2018-05-12T19:25:07.167Z,100780.09
2018-05-12T19:27:35.517Z,100781.28
2018-05-12T19:30:03.849Z,100778.80
2018-05-12T19:32:32.222Z,100778.33
2018-05-12T19:35:00.524Z,100786.27
2018-05-12T19:37:28.918Z,100784.26
2018-05-12T19:39:58.024Z,100782.95
2018-05-12T19:42:26.340Z,100784.30
2018-05-12T19:44:54.727Z,100781.64
2018-05-12T19:47:23.071Z,100781.84
2018-05-12T19:49:51.414Z,100789.22
2018-05-12T19:52:20.593Z,100788.09
2018-05-12T19:54:48.943Z,100792.25
2018-05-12T19:57:17.338Z,100785.08
2018-05-12T19:59:45.709Z,100785.41
2018-05-12T20:02:14.045Z,100785.84
2018-05-12T20:04:49.081Z,100779.58
2018-05-12T20:07:17.555Z,100775.86
2018-05-12T20:09:46.130Z,100776.19
2018-05-12T20:12:14.453Z,100774.91
2018-05-12T20:14:44.013Z,100775.23
2018-05-12T20:17:12.438Z,100770.73
2018-05-12T20:19:40.847Z,100764.17
2018-05-12T20:22:09.237Z,100767.69
2018-05-12T20:24:38.381Z,100760.28
2018-05-12T20:27:06.884Z,100758.27
2018-05-12T20:29:38.201Z,100760.40
2018-05-12T20:32:07.928Z,100731.17
2018-05-12T20:34:37.199Z,100766.09
2018-05-12T20:37:07.275Z,100762.30
2018-05-12T20:39:35.879Z,100757.21
2018-05-12T20:42:06.377Z,100767.36
2018-05-12T20:44:35.565Z,100767.11
2018-05-12T20:47:04.006Z,100764.83
2018-05-12T20:49:35.778Z,100766.45
2018-05-12T20:52:06.304Z,100761.67
2018-05-12T20:54:38.933Z,100756.63
2018-05-12T20:57:07.927Z,100756.59
2018-05-12T20:59:36.353Z,100759.24
2018-05-12T21:04:43.051Z,100747.83
2018-05-12T21:07:11.469Z,100750.36
2018-05-12T21:09:39.860Z,100753.03
2018-05-12T21:12:08.268Z,100752.48
2018-05-12T21:14:37.037Z,100747.21
2018-05-12T21:17:05.598Z,100747.21
2018-05-12T21:19:33.995Z,100744.66
2018-05-12T21:22:03.271Z,100746.98
2018-05-12T21:24:44.283Z,100506.14
2018-05-12T21:27:12.700Z,100743.58
2018-05-12T21:29:41.050Z,100745.80
2018-05-12T21:32:09.475Z,100738.09
2018-05-12T21:34:38.132Z,100731.59
2018-05-12T21:37:06.623Z,100735.17
2018-05-12T21:39:35.033Z,100738.53
2018-05-12T21:42:19.760Z,100745.10
2018-05-12T21:44:48.276Z,100741.55
2018-05-12T21:47:18.385Z,100740.48
2018-05-12T21:49:47.680Z,100736.64
2018-05-12T21:52:16.821Z,100735.58
2018-05-12T21:54:45.210Z,100736.34
2018-05-12T21:57:14.340Z,100740.73
2018-05-12T21:59:42.699Z,100734.20
2018-05-12T22:02:11.100Z,100742.77
2018-05-12T22:04:39.500Z,100746.28
2018-05-12T22:07:08.633Z,100743.20
2018-05-12T22:09:37.015Z,100744.30
2018-05-12T22:12:06.191Z,100745.47
2018-05-12T22:14:35.896Z,100747.11
2018-05-12T22:17:07.154Z,100744.37
2018-05-12T22:19:35.548Z,100745.17
2018-05-12T22:22:24.108Z,100746.80
2018-05-12T22:24:52.466Z,100747.55
2018-05-12T22:27:20.904Z,100745.32
2018-05-12T22:29:49.228Z,100745.98
2018-05-12T22:32:17.686Z,100742.41
2018-05-12T22:34:46.068Z,100744.53
2018-05-12T22:37:14.435Z,100742.45
2018-05-12T22:39:43.564Z,100744.60
2018-05-12T22:42:11.896Z,100743.44
2018-05-12T22:44:41.436Z,100747.42
2018-05-12T22:47:09.776Z,100748.77
2018-05-12T22:49:38.181Z,100747.62
2018-05-12T22:52:06.524Z,100743.53
2018-05-12T22:54:34.900Z,100740.73
2018-05-12T22:57:03.343Z,100737.50
2018-05-12T22:59:31.724Z,100733.99
2018-05-12T23:02:00.088Z,100746.95
2018-05-12T23:04:28.420Z,100741.27
2018-05-12T23:06:56.788Z,100740.70
2018-05-12T23:09:25.516Z,100745.24
2018-05-12T23:11:55.218Z,100732.97
2018-05-12T23:14:24.356Z,100745.27
2018-05-12T23:16:52.700Z,100746.73
2018-05-12T23:19:21.058Z,100748.22
2018-05-12T23:21:50.172Z,100751.88
2018-05-12T23:24:18.520Z,100752.43
2018-05-12T23:26:46.879Z,100745.15
2018-05-12T23:29:15.231Z,100743.50
2018-05-12T23:31:43.588Z,100748.96
2018-05-12T23:34:11.935Z,100738.72
2018-05-12T23:36:41.027Z,100741.02
2018-05-12T23:39:10.154Z,100741.67
2018-05-12T23:41:38.487Z,100742.41
2018-05-12T23:44:06.910Z,100749.98
2018-05-12T23:46:35.287Z,100744.78
2018-05-12T23:49:03.622Z,100739.50
2018-05-12T23:51:32.031Z,100741.48
2018-05-12T23:54:00.363Z,100740.09
2018-05-12T23:56:28.735Z,100738.69
2018-05-12T23:58:57.087Z,100737.30
